sensor_id;sensor_type;location;lat;lon;timestamp;temperature;humidity
15341;DHT22;7770;52.158;5.372;2023-04-27T00:00:36;2.60;99.90
15341;DHT22;7770;52.158;5.372;2023-04-27T00:03:22;2.60;99.90
15341;DHT22;7770;52.158;5.372;2023-04-27T00:06:08;2.60;99.90
15341;DHT22;7770;52.158;5.372;2023-04-27T00:08:54;2.50;99.90
15341;DHT22;7770;52.158;5.372;2023-04-27T00:11:40;2.50;99.90
15341;DHT22;7770;52.158;5.372;2023-04-27T00:14:26;2.50;99.90
15341;DHT22;7770;52.158;5.372;2023-04-27T00:17:13;2.50;99.90
15341;DHT22;7770;52.158;5.372;2023-04-27T00:19:59;2.40;99.90
15341;DHT22;7770;52.158;5.372;2023-04-27T00:22:45;2.40;99.90
15341;DHT22;7770;52.158;5.372;2023-04-27T00:25:31;2.40;99.90
15341;DHT22;7770;52.158;5.372;2023-04-27T00:28:17;2.40;99.90
15341;DHT22;7770;52.158;5.372;2023-04-27T00:31:03;2.30;99.90
15341;DHT22;7770;52.158;5.372;2023-04-27T00:33:50;2.30;99.90
15341;DHT22;7770;52.158;5.372;2023-04-27T00:36:36;2.30;99.90
15341;DHT22;7770;52.158;5.372;2023-04-27T00:39:22;2.20;99.90
15341;DHT22;7770;52.158;5.372;2023-04-27T00:42:08;2.20;99.90
15341;DHT22;7770;52.158;5.372;2023-04-27T00:44:58;2.30;99.90
15341;DHT22;7770;52.158;5.372;2023-04-27T00:47:44;2.30;99.90
15341;DHT22;7770;52.158;5.372;2023-04-27T00:50:30;2.20;99.90
15341;DHT22;7770;52.158;5.372;2023-04-27T00:53:17;2.20;99.90
15341;DHT22;7770;52.158;5.372;2023-04-27T00:56:04;2.20;99.90
15341;DHT22;7770;52.158;5.372;2023-04-27T00:58:51;2.20;99.90
15341;DHT22;7770;52.158;5.372;2023-04-27T01:01:37;2.20;99.90
15341;DHT22;7770;52.158;5.372;2023-04-27T01:04:23;2.20;99.90
15341;DHT22;7770;52.158;5.372;2023-04-27T01:07:09;2.20;99.90
15341;DHT22;7770;52.158;5.372;2023-04-27T01:09:55;2.20;99.90
15341;DHT22;7770;52.158;5.372;2023-04-27T01:12:41;2.30;99.90
15341;DHT22;7770;52.158;5.372;2023-04-27T01:15:28;2.30;99.90
15341;DHT22;7770;52.158;5.372;2023-04-27T01:18:14;2.40;99.90
15341;DHT22;7770;52.158;5.372;2023-04-27T01:21:00;2.50;99.90
15341;DHT22;7770;52.158;5.372;2023-04-27T01:23:46;2.50;99.90
15341;DHT22;7770;52.158;5.372;2023-04-27T01:26:32;2.70;99.90
15341;DHT22;7770;52.158;5.372;2023-04-27T01:29:19;2.70;99.90
15341;DHT22;7770;52.158;5.372;2023-04-27T01:32:06;2.60;99.90
15341;DHT22;7770;52.158;5.372;2023-04-27T01:34:52;2.60;99.90
15341;DHT22;7770;52.158;5.372;2023-04-27T01:37:38;2.60;99.90
15341;DHT22;7770;52.158;5.372;2023-04-27T01:40:24;2.60;99.90
15341;DHT22;7770;52.158;5.372;2023-04-27T01:43:10;2.60;99.90
15341;DHT22;7770;52.158;5.372;2023-04-27T01:46:06;2.60;99.90
15341;DHT22;7770;52.158;5.372;2023-04-27T01:48:56;2.60;99.90
15341;DHT22;7770;52.158;5.372;2023-04-27T01:51:42;2.50;99.90
15341;DHT22;7770;52.158;5.372;2023-04-27T01:54:28;2.50;99.90
15341;DHT22;7770;52.158;5.372;2023-04-27T01:57:14;2.50;99.90
15341;DHT22;7770;52.158;5.372;2023-04-27T02:00:00;2.50;99.90
15341;DHT22;7770;52.158;5.372;2023-04-27T02:02:46;2.50;99.90
15341;DHT22;7770;52.158;5.372;2023-04-27T02:05:32;2.50;99.90
15341;DHT22;7770;52.158;5.372;2023-04-27T02:08:18;2.50;99.90
15341;DHT22;7770;52.158;5.372;2023-04-27T02:11:04;2.50;99.90
15341;DHT22;7770;52.158;5.372;2023-04-27T02:13:50;2.50;99.90
15341;DHT22;7770;52.158;5.372;2023-04-27T02:16:36;2.50;99.90
15341;DHT22;7770;52.158;5.372;2023-04-27T02:19:22;2.50;99.90
15341;DHT22;7770;52.158;5.372;2023-04-27T02:22:08;2.50;99.90
15341;DHT22;7770;52.158;5.372;2023-04-27T02:24:54;2.50;99.90
15341;DHT22;7770;52.158;5.372;2023-04-27T02:27:40;2.50;99.90
15341;DHT22;7770;52.158;5.372;2023-04-27T02:30:26;2.60;99.90
15341;DHT22;7770;52.158;5.372;2023-04-27T02:33:12;2.60;99.90
15341;DHT22;7770;52.158;5.372;2023-04-27T02:35:59;2.60;99.90
15341;DHT22;7770;52.158;5.372;2023-04-27T02:38:45;2.70;99.90
15341;DHT22;7770;52.158;5.372;2023-04-27T02:41:31;2.70;99.90
15341;DHT22;7770;52.158;5.372;2023-04-27T02:44:17;2.70;99.90
15341;DHT22;7770;52.158;5.372;2023-04-27T02:47:03;2.70;99.90
15341;DHT22;7770;52.158;5.372;2023-04-27T02:49:49;2.60;99.90
15341;DHT22;7770;52.158;5.372;2023-04-27T02:52:35;2.60;99.90
15341;DHT22;7770;52.158;5.372;2023-04-27T02:55:21;2.50;99.90
15341;DHT22;7770;52.158;5.372;2023-04-27T02:58:07;2.50;99.90
15341;DHT22;7770;52.158;5.372;2023-04-27T03:00:54;2.50;99.90
15341;DHT22;7770;52.158;5.372;2023-04-27T03:03:40;2.50;99.90
15341;DHT22;7770;52.158;5.372;2023-04-27T03:06:26;2.40;99.90
15341;DHT22;7770;52.158;5.372;2023-04-27T03:09:13;2.40;99.90
15341;DHT22;7770;52.158;5.372;2023-04-27T03:11:59;2.40;99.90
15341;DHT22;7770;52.158;5.372;2023-04-27T03:14:45;2.40;99.90
15341;DHT22;7770;52.158;5.372;2023-04-27T03:17:31;2.40;99.90
15341;DHT22;7770;52.158;5.372;2023-04-27T03:20:17;2.40;99.90
15341;DHT22;7770;52.158;5.372;2023-04-27T03:23:03;2.40;99.90
15341;DHT22;7770;52.158;5.372;2023-04-27T03:25:49;2.30;99.90
15341;DHT22;7770;52.158;5.372;2023-04-27T03:28:36;2.30;99.90
15341;DHT22;7770;52.158;5.372;2023-04-27T03:31:22;2.30;99.90
15341;DHT22;7770;52.158;5.372;2023-04-27T03:34:08;2.30;99.90
15341;DHT22;7770;52.158;5.372;2023-04-27T03:36:54;2.30;99.90
15341;DHT22;7770;52.158;5.372;2023-04-27T03:39:40;2.30;99.90
15341;DHT22;7770;52.158;5.372;2023-04-27T03:42:26;2.20;99.90
15341;DHT22;7770;52.158;5.372;2023-04-27T03:45:13;2.20;99.90
15341;DHT22;7770;52.158;5.372;2023-04-27T03:48:01;2.20;99.90
15341;DHT22;7770;52.158;5.372;2023-04-27T03:50:47;2.20;99.90
15341;DHT22;7770;52.158;5.372;2023-04-27T03:53:33;2.20;99.90
15341;DHT22;7770;52.158;5.372;2023-04-27T03:56:19;2.20;99.90
15341;DHT22;7770;52.158;5.372;2023-04-27T03:59:05;2.10;99.90
15341;DHT22;7770;52.158;5.372;2023-04-27T04:01:51;2.10;99.90
15341;DHT22;7770;52.158;5.372;2023-04-27T04:04:37;2.10;99.90
15341;DHT22;7770;52.158;5.372;2023-04-27T04:07:23;2.10;99.90
15341;DHT22;7770;52.158;5.372;2023-04-27T04:10:09;2.10;99.90
15341;DHT22;7770;52.158;5.372;2023-04-27T04:12:56;2.10;99.90
15341;DHT22;7770;52.158;5.372;2023-04-27T04:15:42;2.00;99.90
15341;DHT22;7770;52.158;5.372;2023-04-27T04:18:28;2.00;99.90
15341;DHT22;7770;52.158;5.372;2023-04-27T04:21:14;2.00;99.90
15341;DHT22;7770;52.158;5.372;2023-04-27T04:24:00;2.00;99.90
15341;DHT22;7770;52.158;5.372;2023-04-27T04:26:46;2.00;99.90
15341;DHT22;7770;52.158;5.372;2023-04-27T04:29:33;2.00;99.90
15341;DHT22;7770;52.158;5.372;2023-04-27T04:32:19;2.00;99.90
15341;DHT22;7770;52.158;5.372;2023-04-27T04:35:05;2.00;99.90
15341;DHT22;7770;52.158;5.372;2023-04-27T04:37:51;2.00;99.90
15341;DHT22;7770;52.158;5.372;2023-04-27T04:40:38;2.10;99.90
15341;DHT22;7770;52.158;5.372;2023-04-27T04:43:25;2.20;99.90
15341;DHT22;7770;52.158;5.372;2023-04-27T04:46:11;2.40;99.90
15341;DHT22;7770;52.158;5.372;2023-04-27T04:48:57;2.50;99.90
15341;DHT22;7770;52.158;5.372;2023-04-27T04:51:43;2.50;99.90
15341;DHT22;7770;52.158;5.372;2023-04-27T04:54:30;2.50;99.90
15341;DHT22;7770;52.158;5.372;2023-04-27T04:57:16;2.60;99.90
15341;DHT22;7770;52.158;5.372;2023-04-27T05:00:03;2.70;99.90
15341;DHT22;7770;52.158;5.372;2023-04-27T05:02:51;2.80;99.90
15341;DHT22;7770;52.158;5.372;2023-04-27T05:05:38;3.00;99.90
15341;DHT22;7770;52.158;5.372;2023-04-27T05:08:23;3.10;99.90
15341;DHT22;7770;52.158;5.372;2023-04-27T05:11:09;3.70;99.90
15341;DHT22;7770;52.158;5.372;2023-04-27T05:13:56;4.20;99.90
15341;DHT22;7770;52.158;5.372;2023-04-27T05:16:42;4.50;99.90
15341;DHT22;7770;52.158;5.372;2023-04-27T05:19:28;5.20;99.90
15341;DHT22;7770;52.158;5.372;2023-04-27T05:22:15;5.60;99.90
15341;DHT22;7770;52.158;5.372;2023-04-27T05:25:01;6.00;99.90
15341;DHT22;7770;52.158;5.372;2023-04-27T05:27:48;6.20;99.90
15341;DHT22;7770;52.158;5.372;2023-04-27T05:30:34;6.40;99.90
15341;DHT22;7770;52.158;5.372;2023-04-27T05:33:21;6.10;99.90
15341;DHT22;7770;52.158;5.372;2023-04-27T05:36:07;5.90;99.90
15341;DHT22;7770;52.158;5.372;2023-04-27T05:38:54;5.60;99.90
15341;DHT22;7770;52.158;5.372;2023-04-27T05:41:40;5.80;99.90
15341;DHT22;7770;52.158;5.372;2023-04-27T05:44:26;5.80;99.90
15341;DHT22;7770;52.158;5.372;2023-04-27T05:47:13;5.80;99.90
15341;DHT22;7770;52.158;5.372;2023-04-27T05:49:59;5.80;99.90
15341;DHT22;7770;52.158;5.372;2023-04-27T05:52:45;5.90;99.90
15341;DHT22;7770;52.158;5.372;2023-04-27T05:55:32;6.10;99.90
15341;DHT22;7770;52.158;5.372;2023-04-27T05:58:18;6.00;99.90
15341;DHT22;7770;52.158;5.372;2023-04-27T06:01:04;6.00;99.90
15341;DHT22;7770;52.158;5.372;2023-04-27T06:03:50;6.10;99.90
15341;DHT22;7770;52.158;5.372;2023-04-27T06:06:36;6.30;99.90
15341;DHT22;7770;52.158;5.372;2023-04-27T06:09:23;6.20;99.90
15341;DHT22;7770;52.158;5.372;2023-04-27T06:12:08;6.10;99.90
15341;DHT22;7770;52.158;5.372;2023-04-27T06:14:55;6.10;99.90
15341;DHT22;7770;52.158;5.372;2023-04-27T06:17:41;6.20;99.90
15341;DHT22;7770;52.158;5.372;2023-04-27T06:20:28;6.20;99.90
15341;DHT22;7770;52.158;5.372;2023-04-27T06:23:14;6.10;99.90
15341;DHT22;7770;52.158;5.372;2023-04-27T06:26:00;6.10;99.90
15341;DHT22;7770;52.158;5.372;2023-04-27T06:28:46;6.20;99.90
15341;DHT22;7770;52.158;5.372;2023-04-27T06:31:35;6.40;99.90
15341;DHT22;7770;52.158;5.372;2023-04-27T06:34:21;6.60;99.90
15341;DHT22;7770;52.158;5.372;2023-04-27T06:37:07;6.80;99.90
15341;DHT22;7770;52.158;5.372;2023-04-27T06:39:53;6.90;99.90
15341;DHT22;7770;52.158;5.372;2023-04-27T06:42:40;7.10;99.90
15341;DHT22;7770;52.158;5.372;2023-04-27T06:45:26;7.30;99.90
15341;DHT22;7770;52.158;5.372;2023-04-27T06:48:11;7.40;99.90
15341;DHT22;7770;52.158;5.372;2023-04-27T06:50:58;7.50;99.90
15341;DHT22;7770;52.158;5.372;2023-04-27T06:53:44;7.80;99.90
15341;DHT22;7770;52.158;5.372;2023-04-27T06:56:30;8.20;99.90
15341;DHT22;7770;52.158;5.372;2023-04-27T06:59:16;8.50;99.90
15341;DHT22;7770;52.158;5.372;2023-04-27T07:02:02;8.30;99.90
15341;DHT22;7770;52.158;5.372;2023-04-27T07:04:48;8.60;99.90
15341;DHT22;7770;52.158;5.372;2023-04-27T07:07:35;8.80;99.90
15341;DHT22;7770;52.158;5.372;2023-04-27T07:10:21;9.00;99.90
15341;DHT22;7770;52.158;5.372;2023-04-27T07:13:07;9.00;99.90
15341;DHT22;7770;52.158;5.372;2023-04-27T07:15:55;9.10;99.90
15341;DHT22;7770;52.158;5.372;2023-04-27T07:18:45;9.30;99.90
15341;DHT22;7770;52.158;5.372;2023-04-27T07:21:31;10.00;99.90
15341;DHT22;7770;52.158;5.372;2023-04-27T07:24:18;10.30;99.90
15341;DHT22;7770;52.158;5.372;2023-04-27T07:27:04;10.70;99.90
15341;DHT22;7770;52.158;5.372;2023-04-27T07:29:51;10.80;99.90
15341;DHT22;7770;52.158;5.372;2023-04-27T07:32:39;10.90;99.90
15341;DHT22;7770;52.158;5.372;2023-04-27T07:35:26;11.20;99.90
15341;DHT22;7770;52.158;5.372;2023-04-27T07:38:12;11.00;99.70
15341;DHT22;7770;52.158;5.372;2023-04-27T07:40:59;11.20;99.50
15341;DHT22;7770;52.158;5.372;2023-04-27T07:43:50;12.00;98.40
15341;DHT22;7770;52.158;5.372;2023-04-27T07:46:37;12.70;97.20
15341;DHT22;7770;52.158;5.372;2023-04-27T07:49:23;13.10;96.00
15341;DHT22;7770;52.158;5.372;2023-04-27T07:52:10;12.70;96.20
15341;DHT22;7770;52.158;5.372;2023-04-27T07:54:57;13.10;96.60
15341;DHT22;7770;52.158;5.372;2023-04-27T07:57:42;13.80;94.70
15341;DHT22;7770;52.158;5.372;2023-04-27T08:00:29;14.00;93.10
15341;DHT22;7770;52.158;5.372;2023-04-27T08:03:14;13.80;93.40
15341;DHT22;7770;52.158;5.372;2023-04-27T08:06:01;13.40;93.20
15341;DHT22;7770;52.158;5.372;2023-04-27T08:08:48;13.30;93.70
15341;DHT22;7770;52.158;5.372;2023-04-27T08:11:34;13.60;92.60
15341;DHT22;7770;52.158;5.372;2023-04-27T08:14:20;13.90;93.00
15341;DHT22;7770;52.158;5.372;2023-04-27T08:17:06;14.00;93.20
15341;DHT22;7770;52.158;5.372;2023-04-27T08:19:52;14.30;92.20
15341;DHT22;7770;52.158;5.372;2023-04-27T08:22:41;14.70;92.10
15341;DHT22;7770;52.158;5.372;2023-04-27T08:25:28;15.50;91.10
15341;DHT22;7770;52.158;5.372;2023-04-27T08:28:14;16.30;90.90
15341;DHT22;7770;52.158;5.372;2023-04-27T08:31:00;15.60;90.50
15341;DHT22;7770;52.158;5.372;2023-04-27T08:33:46;15.60;90.60
15341;DHT22;7770;52.158;5.372;2023-04-27T08:36:32;15.60;90.60
15341;DHT22;7770;52.158;5.372;2023-04-27T08:39:19;15.90;90.00
15341;DHT22;7770;52.158;5.372;2023-04-27T08:42:12;14.90;90.30
15341;DHT22;7770;52.158;5.372;2023-04-27T08:44:58;14.50;91.90
15341;DHT22;7770;52.158;5.372;2023-04-27T08:47:44;14.80;90.20
15341;DHT22;7770;52.158;5.372;2023-04-27T08:50:31;15.00;89.60
15341;DHT22;7770;52.158;5.372;2023-04-27T08:53:21;14.50;90.90
15341;DHT22;7770;52.158;5.372;2023-04-27T08:56:07;14.60;91.00
15341;DHT22;7770;52.158;5.372;2023-04-27T08:58:55;15.20;87.40
15341;DHT22;7770;52.158;5.372;2023-04-27T09:01:45;15.70;86.50
15341;DHT22;7770;52.158;5.372;2023-04-27T09:04:39;15.20;86.70
15341;DHT22;7770;52.158;5.372;2023-04-27T09:07:25;15.60;89.90
15341;DHT22;7770;52.158;5.372;2023-04-27T09:10:11;16.10;85.80
15341;DHT22;7770;52.158;5.372;2023-04-27T09:12:58;16.60;83.60
15341;DHT22;7770;52.158;5.372;2023-04-27T09:15:50;16.20;86.50
15341;DHT22;7770;52.158;5.372;2023-04-27T09:18:36;16.00;85.30
15341;DHT22;7770;52.158;5.372;2023-04-27T09:21:24;16.50;87.00
15341;DHT22;7770;52.158;5.372;2023-04-27T09:24:12;18.00;82.40
15341;DHT22;7770;52.158;5.372;2023-04-27T09:26:59;18.00;82.60
15341;DHT22;7770;52.158;5.372;2023-04-27T09:29:45;17.00;83.00
15341;DHT22;7770;52.158;5.372;2023-04-27T09:32:31;17.00;84.20
15341;DHT22;7770;52.158;5.372;2023-04-27T09:35:25;17.60;83.10
15341;DHT22;7770;52.158;5.372;2023-04-27T09:38:12;18.60;80.60
15341;DHT22;7770;52.158;5.372;2023-04-27T09:40:59;18.10;81.80
15341;DHT22;7770;52.158;5.372;2023-04-27T09:43:46;18.20;80.70
15341;DHT22;7770;52.158;5.372;2023-04-27T09:46:32;18.50;82.60
15341;DHT22;7770;52.158;5.372;2023-04-27T09:49:19;18.30;80.30
15341;DHT22;7770;52.158;5.372;2023-04-27T09:52:06;17.60;80.60
15341;DHT22;7770;52.158;5.372;2023-04-27T09:54:53;16.80;84.40
15341;DHT22;7770;52.158;5.372;2023-04-27T10:01:38;19.10;79.00
15341;DHT22;7770;52.158;5.372;2023-04-27T10:07:46;19.90;78.20
15341;DHT22;7770;52.158;5.372;2023-04-27T10:10:42;18.20;80.60
15341;DHT22;7770;52.158;5.372;2023-04-27T10:13:34;17.20;82.20
15341;DHT22;7770;52.158;5.372;2023-04-27T10:16:20;16.90;81.80
15341;DHT22;7770;52.158;5.372;2023-04-27T10:19:08;16.90;81.10
15341;DHT22;7770;52.158;5.372;2023-04-27T10:21:59;16.50;82.10
15341;DHT22;7770;52.158;5.372;2023-04-27T10:24:50;16.80;83.20
15341;DHT22;7770;52.158;5.372;2023-04-27T10:27:38;18.10;81.70
15341;DHT22;7770;52.158;5.372;2023-04-27T10:30:33;19.00;78.90
15341;DHT22;7770;52.158;5.372;2023-04-27T10:33:21;17.90;80.00
15341;DHT22;7770;52.158;5.372;2023-04-27T10:36:13;16.80;83.50
15341;DHT22;7770;52.158;5.372;2023-04-27T10:38:59;16.10;84.70
15341;DHT22;7770;52.158;5.372;2023-04-27T10:41:49;16.90;83.90
15341;DHT22;7770;52.158;5.372;2023-04-27T10:44:38;18.10;81.60
15341;DHT22;7770;52.158;5.372;2023-04-27T10:47:43;17.00;80.90
15341;DHT22;7770;52.158;5.372;2023-04-27T10:50:30;17.90;80.80
15341;DHT22;7770;52.158;5.372;2023-04-27T10:53:19;18.30;80.60
15341;DHT22;7770;52.158;5.372;2023-04-27T10:56:05;16.80;82.30
15341;DHT22;7770;52.158;5.372;2023-04-27T10:58:52;17.60;83.50
15341;DHT22;7770;52.158;5.372;2023-04-27T11:01:39;18.60;80.00
15341;DHT22;7770;52.158;5.372;2023-04-27T11:04:37;18.20;80.40
15341;DHT22;7770;52.158;5.372;2023-04-27T11:07:26;18.50;80.70
15341;DHT22;7770;52.158;5.372;2023-04-27T11:10:17;18.70;79.70
15341;DHT22;7770;52.158;5.372;2023-04-27T11:13:11;20.40;77.00
15341;DHT22;7770;52.158;5.372;2023-04-27T11:15:59;19.50;79.70
15341;DHT22;7770;52.158;5.372;2023-04-27T11:18:45;19.40;79.10
15341;DHT22;7770;52.158;5.372;2023-04-27T11:21:31;19.80;76.20
15341;DHT22;7770;52.158;5.372;2023-04-27T11:24:18;21.50;77.60
15341;DHT22;7770;52.158;5.372;2023-04-27T11:27:04;22.50;74.00
15341;DHT22;7770;52.158;5.372;2023-04-27T11:29:50;19.50;77.50
15341;DHT22;7770;52.158;5.372;2023-04-27T11:32:36;19.30;78.20
15341;DHT22;7770;52.158;5.372;2023-04-27T11:35:34;19.20;77.30
15341;DHT22;7770;52.158;5.372;2023-04-27T11:38:20;19.50;76.70
15341;DHT22;7770;52.158;5.372;2023-04-27T11:41:07;18.20;78.90
15341;DHT22;7770;52.158;5.372;2023-04-27T11:43:53;18.20;79.30
15341;DHT22;7770;52.158;5.372;2023-04-27T11:46:43;19.10;80.00
15341;DHT22;7770;52.158;5.372;2023-04-27T11:49:31;19.30;77.80
15341;DHT22;7770;52.158;5.372;2023-04-27T11:52:18;19.10;77.00
15341;DHT22;7770;52.158;5.372;2023-04-27T11:55:04;17.90;81.70
15341;DHT22;7770;52.158;5.372;2023-04-27T11:57:57;17.60;81.00
15341;DHT22;7770;52.158;5.372;2023-04-27T12:00:43;17.00;80.40
15341;DHT22;7770;52.158;5.372;2023-04-27T12:03:32;16.90;81.60
15341;DHT22;7770;52.158;5.372;2023-04-27T12:06:25;17.40;81.40
15341;DHT22;7770;52.158;5.372;2023-04-27T12:09:14;16.80;80.50
15341;DHT22;7770;52.158;5.372;2023-04-27T12:12:00;16.50;82.80
15341;DHT22;7770;52.158;5.372;2023-04-27T12:14:48;16.30;80.80
15341;DHT22;7770;52.158;5.372;2023-04-27T12:17:34;16.50;82.30
15341;DHT22;7770;52.158;5.372;2023-04-27T12:20:20;16.80;82.40
15341;DHT22;7770;52.158;5.372;2023-04-27T12:23:06;16.70;81.90
15341;DHT22;7770;52.158;5.372;2023-04-27T12:25:52;17.10;80.60
15341;DHT22;7770;52.158;5.372;2023-04-27T12:28:38;15.70;83.00
15341;DHT22;7770;52.158;5.372;2023-04-27T12:31:24;16.00;83.30
15341;DHT22;7770;52.158;5.372;2023-04-27T12:34:11;16.00;83.50
15341;DHT22;7770;52.158;5.372;2023-04-27T12:36:57;16.30;84.30
15341;DHT22;7770;52.158;5.372;2023-04-27T12:39:43;16.50;81.60
15341;DHT22;7770;52.158;5.372;2023-04-27T12:42:29;16.60;84.00
15341;DHT22;7770;52.158;5.372;2023-04-27T12:45:15;16.10;81.80
15341;DHT22;7770;52.158;5.372;2023-04-27T12:48:01;15.70;84.80
15341;DHT22;7770;52.158;5.372;2023-04-27T12:50:47;14.90;84.50
15341;DHT22;7770;52.158;5.372;2023-04-27T12:53:33;15.00;85.30
15341;DHT22;7770;52.158;5.372;2023-04-27T12:56:19;15.40;83.50
15341;DHT22;7770;52.158;5.372;2023-04-27T12:59:06;15.70;82.20
15341;DHT22;7770;52.158;5.372;2023-04-27T13:01:52;16.40;84.90
15341;DHT22;7770;52.158;5.372;2023-04-27T13:04:38;16.50;84.90
15341;DHT22;7770;52.158;5.372;2023-04-27T13:07:24;15.80;83.30
15341;DHT22;7770;52.158;5.372;2023-04-27T13:10:10;15.00;83.90
15341;DHT22;7770;52.158;5.372;2023-04-27T13:12:56;15.00;85.80
15341;DHT22;7770;52.158;5.372;2023-04-27T13:15:44;15.60;83.30
15341;DHT22;7770;52.158;5.372;2023-04-27T13:18:30;15.90;83.10
15341;DHT22;7770;52.158;5.372;2023-04-27T13:21:17;16.00;83.30
15341;DHT22;7770;52.158;5.372;2023-04-27T13:24:04;15.60;83.30
15341;DHT22;7770;52.158;5.372;2023-04-27T13:26:50;15.10;84.30
15341;DHT22;7770;52.158;5.372;2023-04-27T13:29:37;15.70;85.40
15341;DHT22;7770;52.158;5.372;2023-04-27T13:32:23;16.30;82.40
15341;DHT22;7770;52.158;5.372;2023-04-27T13:35:09;15.70;82.60
15341;DHT22;7770;52.158;5.372;2023-04-27T13:37:55;15.60;84.20
15341;DHT22;7770;52.158;5.372;2023-04-27T13:40:41;15.50;83.00
15341;DHT22;7770;52.158;5.372;2023-04-27T13:43:27;15.40;82.20
15341;DHT22;7770;52.158;5.372;2023-04-27T13:46:13;15.60;82.90
15341;DHT22;7770;52.158;5.372;2023-04-27T13:49:00;15.20;84.70
15341;DHT22;7770;52.158;5.372;2023-04-27T13:51:46;15.30;84.80
15341;DHT22;7770;52.158;5.372;2023-04-27T13:54:32;15.40;84.30
15341;DHT22;7770;52.158;5.372;2023-04-27T13:57:17;15.30;84.10
15341;DHT22;7770;52.158;5.372;2023-04-27T14:00:04;14.90;84.30
15341;DHT22;7770;52.158;5.372;2023-04-27T14:02:55;15.20;84.50
15341;DHT22;7770;52.158;5.372;2023-04-27T14:05:42;15.30;83.50
15341;DHT22;7770;52.158;5.372;2023-04-27T14:08:29;15.90;82.50
15341;DHT22;7770;52.158;5.372;2023-04-27T14:11:15;15.30;83.70
15341;DHT22;7770;52.158;5.372;2023-04-27T14:14:01;15.20;83.70
15341;DHT22;7770;52.158;5.372;2023-04-27T14:16:47;15.30;83.10
15341;DHT22;7770;52.158;5.372;2023-04-27T14:19:33;15.00;84.30
15341;DHT22;7770;52.158;5.372;2023-04-27T14:22:19;14.80;85.10
15341;DHT22;7770;52.158;5.372;2023-04-27T14:25:05;15.00;84.50
15341;DHT22;7770;52.158;5.372;2023-04-27T14:27:52;15.10;84.40
15341;DHT22;7770;52.158;5.372;2023-04-27T14:30:38;15.30;83.40
15341;DHT22;7770;52.158;5.372;2023-04-27T14:33:24;15.00;83.20
15341;DHT22;7770;52.158;5.372;2023-04-27T14:36:10;14.80;84.20
15341;DHT22;7770;52.158;5.372;2023-04-27T14:38:56;14.70;83.80
15341;DHT22;7770;52.158;5.372;2023-04-27T14:41:42;14.90;82.90
15341;DHT22;7770;52.158;5.372;2023-04-27T14:44:28;15.00;83.20
15341;DHT22;7770;52.158;5.372;2023-04-27T14:47:15;15.00;83.20
15341;DHT22;7770;52.158;5.372;2023-04-27T14:50:01;15.20;84.00
15341;DHT22;7770;52.158;5.372;2023-04-27T14:52:48;15.10;84.00
15341;DHT22;7770;52.158;5.372;2023-04-27T14:55:34;14.90;84.30
15341;DHT22;7770;52.158;5.372;2023-04-27T14:58:21;14.70;84.60
15341;DHT22;7770;52.158;5.372;2023-04-27T15:01:07;14.80;84.90
15341;DHT22;7770;52.158;5.372;2023-04-27T15:03:54;14.70;85.80
15341;DHT22;7770;52.158;5.372;2023-04-27T15:06:41;15.00;84.00
15341;DHT22;7770;52.158;5.372;2023-04-27T15:09:27;14.80;84.00
15341;DHT22;7770;52.158;5.372;2023-04-27T15:12:12;14.40;85.20
15341;DHT22;7770;52.158;5.372;2023-04-27T15:14:59;14.30;84.60
15341;DHT22;7770;52.158;5.372;2023-04-27T15:17:46;14.40;84.90
15341;DHT22;7770;52.158;5.372;2023-04-27T15:20:32;14.30;85.10
15341;DHT22;7770;52.158;5.372;2023-04-27T15:23:19;14.40;84.70
15341;DHT22;7770;52.158;5.372;2023-04-27T15:26:06;14.30;84.60
15341;DHT22;7770;52.158;5.372;2023-04-27T15:28:53;14.30;84.10
15341;DHT22;7770;52.158;5.372;2023-04-27T15:31:39;14.50;85.00
15341;DHT22;7770;52.158;5.372;2023-04-27T15:34:25;14.20;84.60
15341;DHT22;7770;52.158;5.372;2023-04-27T15:37:11;14.00;85.00
15341;DHT22;7770;52.158;5.372;2023-04-27T15:39:57;14.00;86.20
15341;DHT22;7770;52.158;5.372;2023-04-27T15:42:45;14.10;85.40
15341;DHT22;7770;52.158;5.372;2023-04-27T15:45:31;14.20;85.20
15341;DHT22;7770;52.158;5.372;2023-04-27T15:48:17;14.00;83.80
15341;DHT22;7770;52.158;5.372;2023-04-27T15:51:03;14.00;85.10
15341;DHT22;7770;52.158;5.372;2023-04-27T15:53:51;14.00;84.90
15341;DHT22;7770;52.158;5.372;2023-04-27T15:56:37;14.10;85.10
15341;DHT22;7770;52.158;5.372;2023-04-27T15:59:23;14.20;85.40
15341;DHT22;7770;52.158;5.372;2023-04-27T16:02:09;13.90;84.80
15341;DHT22;7770;52.158;5.372;2023-04-27T16:04:55;13.80;85.80
15341;DHT22;7770;52.158;5.372;2023-04-27T16:07:42;14.10;85.50
15341;DHT22;7770;52.158;5.372;2023-04-27T16:10:29;13.80;86.00
15341;DHT22;7770;52.158;5.372;2023-04-27T16:13:15;13.60;88.00
15341;DHT22;7770;52.158;5.372;2023-04-27T16:16:00;13.60;87.00
15341;DHT22;7770;52.158;5.372;2023-04-27T16:18:47;13.60;86.80
15341;DHT22;7770;52.158;5.372;2023-04-27T16:21:33;13.60;87.20
15341;DHT22;7770;52.158;5.372;2023-04-27T16:24:19;13.50;86.40
15341;DHT22;7770;52.158;5.372;2023-04-27T16:27:05;13.40;87.70
15341;DHT22;7770;52.158;5.372;2023-04-27T16:29:51;13.40;87.80
15341;DHT22;7770;52.158;5.372;2023-04-27T16:32:37;13.50;87.50
15341;DHT22;7770;52.158;5.372;2023-04-27T16:35:23;13.40;87.60
15341;DHT22;7770;52.158;5.372;2023-04-27T16:38:09;13.40;87.50
15341;DHT22;7770;52.158;5.372;2023-04-27T16:40:55;13.40;88.60
15341;DHT22;7770;52.158;5.372;2023-04-27T16:43:42;13.40;88.10
15341;DHT22;7770;52.158;5.372;2023-04-27T16:46:28;13.40;88.00
15341;DHT22;7770;52.158;5.372;2023-04-27T16:49:14;13.40;88.90
15341;DHT22;7770;52.158;5.372;2023-04-27T16:52:00;13.30;89.70
15341;DHT22;7770;52.158;5.372;2023-04-27T16:54:46;13.60;90.10
15341;DHT22;7770;52.158;5.372;2023-04-27T16:57:32;13.50;88.50
15341;DHT22;7770;52.158;5.372;2023-04-27T17:00:18;13.20;89.60
15341;DHT22;7770;52.158;5.372;2023-04-27T17:03:04;13.20;89.20
15341;DHT22;7770;52.158;5.372;2023-04-27T17:05:51;13.20;90.00
15341;DHT22;7770;52.158;5.372;2023-04-27T17:08:37;13.30;90.30
15341;DHT22;7770;52.158;5.372;2023-04-27T17:11:24;13.20;90.60
15341;DHT22;7770;52.158;5.372;2023-04-27T17:14:10;13.30;90.50
15341;DHT22;7770;52.158;5.372;2023-04-27T17:16:56;13.10;89.80
15341;DHT22;7770;52.158;5.372;2023-04-27T17:19:42;13.10;89.50
15341;DHT22;7770;52.158;5.372;2023-04-27T17:22:28;13.10;89.40
15341;DHT22;7770;52.158;5.372;2023-04-27T17:25:14;13.00;90.10
15341;DHT22;7770;52.158;5.372;2023-04-27T17:28:01;12.90;89.90
15341;DHT22;7770;52.158;5.372;2023-04-27T17:30:47;12.90;90.20
15341;DHT22;7770;52.158;5.372;2023-04-27T17:33:33;13.00;90.20
15341;DHT22;7770;52.158;5.372;2023-04-27T17:36:19;12.80;90.60
15341;DHT22;7770;52.158;5.372;2023-04-27T17:39:05;12.80;90.50
15341;DHT22;7770;52.158;5.372;2023-04-27T17:41:51;12.80;90.50
15341;DHT22;7770;52.158;5.372;2023-04-27T17:44:38;12.60;90.50
15341;DHT22;7770;52.158;5.372;2023-04-27T17:47:26;12.60;90.80
15341;DHT22;7770;52.158;5.372;2023-04-27T17:50:12;12.50;91.10
15341;DHT22;7770;52.158;5.372;2023-04-27T17:52:59;12.50;91.00
15341;DHT22;7770;52.158;5.372;2023-04-27T17:55:45;12.50;91.00
15341;DHT22;7770;52.158;5.372;2023-04-27T17:58:33;12.50;91.10
15341;DHT22;7770;52.158;5.372;2023-04-27T18:01:19;12.50;90.80
15341;DHT22;7770;52.158;5.372;2023-04-27T18:04:05;12.50;91.20